Bookmark and Share
Track history (hours):
 

Guide

More information available from US FCC via Universal Licensing System and Coast Guard Vessel Documentation Center.

Last reported at 2014-Apr-24 05:50 UTC. Time now 2014-Apr-24 05:56 UTC.
Position N 47°35' W 122°21'.

Length 34 m; draft 5.1 m.

Type: Tug. MMSI: 366759530.

NotesDate/timePositionNaut miles runAvg speedWind from/ knotsBaromVisibWave heightAir tempDewpointWater temp
2014-Apr-24 05:50N 47°35' W 122°21'0 0.0
2014-Apr-24 05:33N 47°35' W 122°21'0 0.1
2014-Apr-24 04:33N 47°35' W 122°21'0 1.3
2014-Apr-24 04:30N 47°35' W 122°21'2 2.3
2014-Apr-24 03:33N 47°36' W 122°24'410.4
2014-Apr-24 03:13N 47°32' W 122°25'811.9
2014-Apr-24 02:33N 47°25' W 122°22'211.0
2014-Apr-24 02:23N 47°23' W 122°21'7 8.0
2014-Apr-24 01:33N 47°16' W 122°24'1 1.3
2014-Apr-24 00:33N 47°15' W 122°23'2 1.7
2014-Apr-23 23:33N 47°17' W 122°25'2 1.6
2014-Apr-23 22:33N 47°15' W 122°26'0 0.0
2014-Apr-23 21:33N 47°15' W 122°26'0 0.0
2014-Apr-23 20:33N 47°15' W 122°26'0 0.0
2014-Apr-23 19:33N 47°15' W 122°26'0 0.0
2014-Apr-23 18:33N 47°15' W 122°26'0 0.0
2014-Apr-23 17:30N 47°15' W 122°26'0 0.0
2014-Apr-23 16:33N 47°15' W 122°26'0 0.0
2014-Apr-23 15:33N 47°15' W 122°26'0 0.0
2014-Apr-23 14:33N 47°15' W 122°26'0 0.0
2014-Apr-23 13:33N 47°15' W 122°26'2 1.9
2014-Apr-23 12:33N 47°16' W 122°23'2 2.3
2014-Apr-23 11:33N 47°17' W 122°26'1 1.3
2014-Apr-23 10:32N 47°16' W 122°24'1 1.2
2014-Apr-23 09:33N 47°16' W 122°23'3 3.0
2014-Apr-23 08:33N 47°17' W 122°26'2 2.2
2014-Apr-23 07:33N 47°15' W 122°26'0 0.0
2014-Apr-23 06:33N 47°15' W 122°26'0 0.0
2014-Apr-23 05:33N 47°15' W 122°26'0 0.0
2014-Apr-23 04:33N 47°15' W 122°26'0 0.0
2014-Apr-23 03:33N 47°15' W 122°26'0 0.0
2014-Apr-23 02:33N 47°15' W 122°26'1 0.7
2014-Apr-23 01:33N 47°16' W 122°26'2 2.2
2014-Apr-23 00:33N 47°16' W 122°23'0 0.0
2014-Apr-22 23:33N 47°16' W 122°23'2 2.2
2014-Apr-22 22:33N 47°17' W 122°26'2 1.9
2014-Apr-22 21:33N 47°15' W 122°26'0 0.0
2014-Apr-22 20:33N 47°15' W 122°26'0 0.0
2014-Apr-22 19:33N 47°15' W 122°26'0 0.0
2014-Apr-22 18:33N 47°15' W 122°26'0 0.0
2014-Apr-22 17:33N 47°15' W 122°26'0 0.0
2014-Apr-22 16:33N 47°15' W 122°26'0 0.0
2014-Apr-22 15:33N 47°15' W 122°26'0 0.0
2014-Apr-22 14:33N 47°15' W 122°26'0 0.0
2014-Apr-22 13:33N 47°15' W 122°26'0 0.0
2014-Apr-22 12:33N 47°15' W 122°26'0 0.0
2014-Apr-22 11:33N 47°15' W 122°26'0 0.0
2014-Apr-22 10:33N 47°15' W 122°26'0 0.0
2014-Apr-22 09:33N 47°15' W 122°26'0 0.0
2014-Apr-22 08:32N 47°15' W 122°26'0 0.0
2014-Apr-22 07:33N 47°15' W 122°26'0 0.0
2014-Apr-22 06:33N 47°15' W 122°26'0 0.0
2014-Apr-22 05:33N 47°15' W 122°26'0 0.0
2014-Apr-22 04:33N 47°15' W 122°26'0 0.0
2014-Apr-22 03:33N 47°15' W 122°26'0 0.0
2014-Apr-22 02:33N 47°15' W 122°26'0 0.4
2014-Apr-22 01:33N 47°16' W 122°26'2 1.8
2014-Apr-22 00:33N 47°16' W 122°24'1 0.5
2014-Apr-21 23:33N 47°16' W 122°23'1 1.4
2014-Apr-21 22:33N 47°17' W 122°24'1 0.5
2014-Apr-21 20:22N 47°16' W 122°23'2 2.3
2014-Apr-21 19:33N 47°17' W 122°25'2 2.1
2014-Apr-21 18:33N 47°15' W 122°26'0 0.0
2014-Apr-21 17:33N 47°15' W 122°26'0 0.0
2014-Apr-21 16:33N 47°15' W 122°26'0 0.0
2014-Apr-21 15:33N 47°15' W 122°26'0 0.0
2014-Apr-21 14:33N 47°15' W 122°26'0 0.0
2014-Apr-21 13:33N 47°15' W 122°26'0 0.0
2014-Apr-21 12:33N 47°15' W 122°26'0 0.0
2014-Apr-21 11:33N 47°15' W 122°26'0 0.0
2014-Apr-21 10:33N 47°15' W 122°26'0 0.0
2014-Apr-21 09:33N 47°15' W 122°26'0 0.0
2014-Apr-21 08:33N 47°15' W 122°26'0 0.0
2014-Apr-21 07:33N 47°15' W 122°26'0 0.0
2014-Apr-21 06:33N 47°15' W 122°26'0 0.0
2014-Apr-21 05:33N 47°15' W 122°26'0 0.0
2014-Apr-21 04:33N 47°15' W 122°26'0 0.0
2014-Apr-21 03:33N 47°15' W 122°26'0 0.0
2014-Apr-21 02:33N 47°15' W 122°26'0 0.0
2014-Apr-21 01:33N 47°15' W 122°26'1 1.1
2014-Apr-21 00:33N 47°16' W 122°25'0 0.3
2014-Apr-20 23:33N 47°16' W 122°25'1 0.7
2014-Apr-20 22:33N 47°17' W 122°25'1 0.7
2014-Apr-20 21:27N 47°18' W 122°26'0 0.0
2014-Apr-20 20:33N 47°18' W 122°26'3 2.7
2014-Apr-20 19:33N 47°16' W 122°23'3 3.1
2014-Apr-20 18:33N 47°17' W 122°27'1 0.6
2014-Apr-20 17:10N 47°18' W 122°26'0 0.0
2014-Apr-20 16:27N 47°18' W 122°26'3 3.3
2014-Apr-20 15:33N 47°15' W 122°23'2 1.8
2014-Apr-20 14:33N 47°16' W 122°25'1 1.3
2014-Apr-20 13:32N 47°17' W 122°26'2 2.0
2014-Apr-20 12:33N 47°15' W 122°26'0 0.0
2014-Apr-20 11:33N 47°15' W 122°26'0 0.0
2014-Apr-20 10:33N 47°15' W 122°26'0 0.0
2014-Apr-20 09:33N 47°15' W 122°26'0 0.0
2014-Apr-20 08:32N 47°15' W 122°26'0 0.0
2014-Apr-20 07:33N 47°15' W 122°26'0 0.0
2014-Apr-20 06:33N 47°15' W 122°26'0 0.0
2014-Apr-20 05:33N 47°15' W 122°26'0 0.0
2014-Apr-20 04:33N 47°15' W 122°26'0 0.0
2014-Apr-20 03:33N 47°15' W 122°26'0 0.0
2014-Apr-20 02:28N 47°15' W 122°26'2 2.0
2014-Apr-20 01:33N 47°16' W 122°23'3 3.3
2014-Apr-20 00:33N 47°18' W 122°27'3 3.3
2014-Apr-19 23:33N 47°16' W 122°23'1 0.9
2014-Apr-19 22:33N 47°16' W 122°24'2 2.0
2014-Apr-19 21:33N 47°18' W 122°27'1 2.1
2014-Apr-19 21:09N 47°18' W 122°28'5 8.6
2014-Apr-19 20:33N 47°22' W 122°32'4 4.3
2014-Apr-19 19:33N 47°27' W 122°31'211.0
2014-Apr-19 19:21N 47°24' W 122°32'7 9.3
2014-Apr-19 18:33N 47°18' W 122°28'3 2.6
2014-Apr-19 17:33N 47°15' W 122°26'0 0.0
2014-Apr-19 16:33N 47°15' W 122°26'2 1.6
2014-Apr-19 15:33N 47°16' W 122°24'1 0.6
2014-Apr-19 14:33N 47°16' W 122°23'2 1.8
2014-Apr-19 13:33N 47°15' W 122°26'0 0.0
2014-Apr-19 12:34N 47°15' W 122°26'0 0.0
2014-Apr-19 11:33N 47°15' W 122°26'0 0.0
2014-Apr-19 10:29N 47°15' W 122°26'0 0.0
2014-Apr-19 09:33N 47°15' W 122°26'0 0.0
2014-Apr-19 08:33N 47°15' W 122°26'0 0.0
2014-Apr-19 07:33N 47°15' W 122°26'0 0.0
2014-Apr-19 06:33N 47°15' W 122°26'0 0.0
2014-Apr-19 05:33N 47°15' W 122°26'1 1.4
2014-Apr-19 04:33N 47°17' W 122°26'2 2.1
2014-Apr-19 03:33N 47°16' W 122°23'0 0.0
2014-Apr-19 02:33N 47°16' W 122°23'0 0.0
2014-Apr-19 01:33N 47°16' W 122°23'0 0.0
2014-Apr-19 00:33N 47°16' W 122°23'0 0.3
2014-Apr-18 23:33N 47°16' W 122°23'1 1.3
2014-Apr-18 22:32N 47°16' W 122°25'0 0.2
2014-Apr-18 21:29N 47°16' W 122°25'1 1.2
2014-Apr-18 20:29N 47°18' W 122°26'3 2.0
2014-Apr-18 19:09N 47°16' W 122°23'0 0.6
2014-Apr-18 18:32N 47°16' W 122°23'2 2.1
2014-Apr-18 17:33N 47°16' W 122°26'1 1.1
2014-Apr-18 16:31N 47°15' W 122°26'0 0.0
2014-Apr-18 15:33N 47°15' W 122°26'0 0.0
2014-Apr-18 14:33N 47°15' W 122°26'0 0.0
2014-Apr-18 13:32N 47°15' W 122°26'0 0.0
2014-Apr-18 12:33N 47°15' W 122°26'1 1.0
2014-Apr-18 11:30N 47°16' W 122°25'0 0.0
2014-Apr-18 10:33N 47°16' W 122°25'1 0.5
2014-Apr-18 09:31N 47°17' W 122°25'2 1.7
2014-Apr-18 08:33N 47°15' W 122°26'0 0.0
2014-Apr-18 07:33N 47°15' W 122°26'0 0.0
2014-Apr-18 06:33N 47°15' W 122°26'0 0.0
2014-Apr-18 05:33N 47°15' W 122°26'0 0.0
2014-Apr-18 04:33N 47°15' W 122°26'0 0.0
2014-Apr-18 03:33N 47°15' W 122°26'2 1.6
2014-Apr-18 02:31N 47°16' W 122°24'1 0.5
2014-Apr-18 01:33N 47°17' W 122°25'0 0.5
2014-Apr-18 00:33N 47°17' W 122°25'1 1.0
2014-Apr-17 23:32N 47°18' W 122°26'0 0.0
2014-Apr-17 22:33N 47°18' W 122°26'0 0.0
2014-Apr-17 21:33N 47°18' W 122°26'2 1.7
2014-Apr-17 20:33N 47°16' W 122°25'1 1.2
2014-Apr-17 19:33N 47°17' W 122°26'2 1.9
2014-Apr-17 18:33N 47°15' W 122°26'0 0.1
2014-Apr-17 17:33N 47°15' W 122°26'1 1.0
2014-Apr-17 16:33N 47°16' W 122°25'1 1.1
2014-Apr-17 15:33N 47°15' W 122°26'0 0.0
2014-Apr-17 14:33N 47°15' W 122°26'0 0.0
2014-Apr-17 13:33N 47°15' W 122°26'0 0.0
2014-Apr-17 12:33N 47°15' W 122°26'0 0.0
2014-Apr-17 11:33N 47°15' W 122°26'0 0.0
2014-Apr-17 10:33N 47°15' W 122°26'0 0.0
2014-Apr-17 09:33N 47°15' W 122°26'0 0.0
2014-Apr-17 08:33N 47°15' W 122°26'0 0.0
2014-Apr-17 07:33N 47°15' W 122°26'0 0.0
2014-Apr-17 06:33N 47°15' W 122°26'0 0.0
2014-Apr-17 05:31N 47°15' W 122°26'0 0.0
2014-Apr-17 04:33N 47°15' W 122°26'0 0.0
2014-Apr-17 03:33N 47°15' W 122°26'0 0.0
2014-Apr-17 02:33N 47°15' W 122°26'2 1.8
2014-Apr-17 01:33N 47°16' W 122°23'0 0.4
2014-Apr-17 00:25N 47°16' W 122°23'1 0.6
2014-Apr-16 23:33N 47°16' W 122°24'1 0.6
2014-Apr-16 22:33N 47°16' W 122°23'1 0.6
2014-Apr-16 21:33N 47°16' W 122°24'2 2.3
2014-Apr-16 20:32N 47°18' W 122°26'0 0.0
2014-Apr-16 19:33N 47°18' W 122°26'0 0.0
2014-Apr-16 18:33N 47°18' W 122°26'0 0.0
2014-Apr-16 17:33N 47°18' W 122°26'0 0.0
2014-Apr-16 16:32N 47°18' W 122°26'1 0.7
2014-Apr-16 15:33N 47°17' W 122°25'1 1.2
2014-Apr-16 14:31N 47°17' W 122°23'1 1.0
2014-Apr-16 13:33N 47°16' W 122°23'1 1.1
2014-Apr-16 12:33N 47°16' W 122°24'2 1.7
2014-Apr-16 11:33N 47°18' W 122°26'0 0.0
2014-Apr-16 10:33N 47°18' W 122°26'2 2.3
2014-Apr-16 09:33N 47°16' W 122°24'0 0.3
2014-Apr-16 08:32N 47°16' W 122°24'1 1.3
2014-Apr-16 07:33N 47°15' W 122°23'1 0.4
2014-Apr-16 04:20N 47°16' W 122°24'1 1.3
2014-Apr-16 03:31N 47°15' W 122°23'2 1.7
2014-Apr-16 02:33N 47°16' W 122°25'0 0.2
2014-Apr-16 01:33N 47°16' W 122°25'1 1.3
2014-Apr-16 00:33N 47°17' W 122°26'2 1.9
2014-Apr-15 23:32N 47°16' W 122°24'1 0.6
2014-Apr-15 22:33N 47°16' W 122°23'0 0.1
2014-Apr-15 21:28N 47°16' W 122°23'0 0.3
2014-Apr-15 20:27N 47°16' W 122°23'2 2.4
2014-Apr-15 19:33N 47°15' W 122°26'0 0.0
2014-Apr-15 18:33N 47°15' W 122°26'0 0.0
2014-Apr-15 17:33N 47°15' W 122°26'0 0.0
2014-Apr-15 16:33N 47°15' W 122°26'0 0.0
2014-Apr-15 15:33N 47°15' W 122°26'0 0.0
2014-Apr-15 14:33N 47°15' W 122°26'0 0.0
2014-Apr-15 12:34N 47°15' W 122°26'0 0.0
2014-Apr-15 11:34N 47°15' W 122°26'1 1.0
2014-Apr-15 10:34N 47°16' W 122°26'2 2.4
2014-Apr-15 09:34N 47°16' W 122°23'3 2.9
2014-Apr-15 08:34N 47°18' W 122°26'2 1.9
2014-Apr-15 07:33N 47°16' W 122°24'0 0.0
2014-Apr-15 06:34N 47°16' W 122°24'0 0.0
2014-Apr-15 05:34N 47°16' W 122°24'0 0.2
2014-Apr-15 03:34N 47°16' W 122°24'0 0.0
2014-Apr-15 02:34N 47°16' W 122°24'0 0.0
2014-Apr-15 01:34N 47°16' W 122°24'1 0.8
2014-Apr-15 00:34N 47°17' W 122°24'0 0.2
2014-Apr-14 23:34N 47°17' W 122°25'2 1.6
2014-Apr-14 22:30N 47°15' W 122°23'2 1.6
2014-Apr-14 21:31N 47°16' W 122°25'1 1.6
2014-Apr-14 20:34N 47°18' W 122°26'2 2.3
2014-Apr-14 19:33N 47°15' W 122°26'0 0.0
2014-Apr-14 18:34N 47°15' W 122°26'0 0.0
2014-Apr-14 17:34N 47°15' W 122°26'0 0.0
2014-Apr-14 16:34N 47°15' W 122°26'0 0.0
2014-Apr-14 15:33N 47°15' W 122°26'0 0.0
2014-Apr-14 14:34N 47°15' W 122°26'1 1.3
2014-Apr-14 13:34N 47°17' W 122°26'1 0.4
2014-Apr-14 11:33N 47°16' W 122°24'1 1.4
2014-Apr-14 10:33N 47°18' W 122°26'0 0.0
2014-Apr-14 09:33N 47°18' W 122°26'0 0.0
2014-Apr-14 08:33N 47°18' W 122°26'3 2.7
2014-Apr-14 07:33N 47°16' W 122°23'3 2.8
2014-Apr-14 06:33N 47°17' W 122°26'713.4
2014-Apr-14 06:00N 47°25' W 122°23'511.8
2014-Apr-14 05:33N 47°20' W 122°27'10169.6
2014-Apr-14 05:30N 47°30' W 122°26'  

Dump ship's entire track history

sailing weather and tide predictions

Guide — WDE7328 — position and weather